Time;durP1;ratioP1;P1;durP2;ratioP2;P2;SDS_P1;SDS_P2;PMS_P1;PMS_P2;Temp;Humidity;BMP_temperature;BMP_pressure;BME280_temperature;BME280_humidity;BME280_pressure;Samples;Min_cycle;Max_cycle;Signal;HPM_P1;HPM_P2
2022/12/25 00:01:11;;;;;;;2.33;1.05;;;;;;;;;;5104233;27;20027;-82
2022/12/25 00:03:37;;;;;;;1.65;1.10;;;;;;;;;;5121432;27;20024;-82
2022/12/25 00:06:04;;;;;;;1.20;0.85;;;;;;;;;;5118602;27;20020;-82
2022/12/25 00:08:29;;;;;;;2.95;1.20;;;;;;;;;;5121596;27;20081;-83
2022/12/25 00:10:59;;;;;;;1.05;0.82;;;;;;;;;;5129787;27;20031;-82
2022/12/25 00:13:25;;;;;;;0.45;0.45;;;;;;;;;;5105793;28;20023;-84
2022/12/25 00:15:50;;;;;;;0.40;0.40;;;;;;;;;;5108538;27;20372;-82
2022/12/25 00:18:15;;;;;;;1.30;0.85;;;;;;;;;;5118409;27;20520;-83
2022/12/25 00:20:41;;;;;;;1.25;0.82;;;;;;;;;;5125317;27;20031;-82
2022/12/25 00:23:06;;;;;;;0.80;0.73;;;;;;;;;;5106576;27;20062;-82
2022/12/25 00:25:32;;;;;;;1.77;1.00;;;;;;;;;;5103382;27;20027;-82
2022/12/25 00:27:57;;;;;;;1.73;1.23;;;;;;;;;;5117541;27;20053;-83
2022/12/25 00:30:22;;;;;;;8.40;0.80;;;;;;;;;;5104540;27;20050;-82
2022/12/25 00:32:48;;;;;;;1.00;0.70;;;;;;;;;;5123851;27;20019;-83
2022/12/25 00:35:13;;;;;;;0.75;0.68;;;;;;;;;;5121527;27;20027;-81
2022/12/25 00:37:39;;;;;;;0.55;0.52;;;;;;;;;;5097518;28;20027;-82
2022/12/25 00:40:05;;;;;;;0.60;0.60;;;;;;;;;;5128851;27;20049;-82
2022/12/25 00:42:31;;;;;;;4.00;1.90;;;;;;;;;;5131380;27;20088;-81
2022/12/25 00:44:56;;;;;;;7.57;2.35;;;;;;;;;;5126786;27;20023;-83
2022/12/25 00:47:22;;;;;;;2.08;0.60;;;;;;;;;;5124118;27;20025;-82
2022/12/25 00:49:47;;;;;;;2.13;0.80;;;;;;;;;;5121990;27;20035;-83
2022/12/25 00:52:12;;;;;;;0.70;0.63;;;;;;;;;;5107096;27;20047;-84
2022/12/25 00:54:38;;;;;;;1.08;0.95;;;;;;;;;;5116638;27;20023;-81
2022/12/25 00:57:03;;;;;;;3.17;1.88;;;;;;;;;;5098712;28;20507;-82
2022/12/25 00:59:33;;;;;;;1.60;1.15;;;;;;;;;;5121056;27;20048;-83
2022/12/25 01:02:22;;;;;;;0.65;0.50;;;;;;;;;;5120908;27;20122;-82
2022/12/25 01:04:44;;;;;;;0.88;0.60;;;;;;;;;;5118960;28;20490;-82
2022/12/25 01:07:10;;;;;;;3.33;1.02;;;;;;;;;;5116498;28;20050;-83
2022/12/25 01:12:22;;;;;;;0.47;0.47;;;;;;;;;;5117756;28;20723;-82
2022/12/25 01:14:48;;;;;;;2.75;1.35;;;;;;;;;;5103437;28;20031;-84
2022/12/25 01:17:13;;;;;;;1.08;0.85;;;;;;;;;;5098301;28;20520;-81
2022/12/25 01:19:39;;;;;;;1.60;1.15;;;;;;;;;;5101952;28;20038;-85
2022/12/25 01:22:04;;;;;;;1.13;0.93;;;;;;;;;;5123340;28;20019;-82
2022/12/25 01:24:30;;;;;;;0.38;0.38;;;;;;;;;;5103188;28;20024;-82
2022/12/25 01:26:55;;;;;;;0.55;0.50;;;;;;;;;;5105019;27;20024;-82
2022/12/25 01:29:20;;;;;;;0.95;0.90;;;;;;;;;;5101722;27;20031;-85
2022/12/25 01:31:46;;;;;;;0.55;0.55;;;;;;;;;;5127581;27;20023;-85
2022/12/25 01:34:11;;;;;;;0.50;0.50;;;;;;;;;;5128633;27;20781;-85
2022/12/25 01:36:37;;;;;;;2.10;0.82;;;;;;;;;;5127029;27;20018;-86
2022/12/25 01:39:03;;;;;;;1.23;0.90;;;;;;;;;;5118277;27;20019;-83
2022/12/25 01:41:28;;;;;;;1.23;0.93;;;;;;;;;;5128835;27;20031;-87
2022/12/25 01:44:27;;;;;;;0.65;0.50;;;;;;;;;;5126869;27;20027;-86
2022/12/25 01:46:53;;;;;;;1.65;1.13;;;;;;;;;;5122936;27;20023;-85
2022/12/25 01:49:23;;;;;;;0.40;0.40;;;;;;;;;;5124629;27;20035;-86
2022/12/25 01:51:59;;;;;;;0.30;0.30;;;;;;;;;;5127583;27;20467;-87
2022/12/25 01:54:27;;;;;;;0.95;0.70;;;;;;;;;;5117813;27;20106;-85
2022/12/25 01:56:56;;;;;;;0.55;0.55;;;;;;;;;;5122351;27;20027;-84
2022/12/25 01:59:23;;;;;;;1.33;1.23;;;;;;;;;;5129441;27;20030;-84
2022/12/25 02:01:49;;;;;;;1.27;1.02;;;;;;;;;;5123113;27;20076;-88
2022/12/25 02:04:38;;;;;;;1.45;1.00;;;;;;;;;;5125384;27;20102;-84
2022/12/25 02:07:06;;;;;;;1.27;0.80;;;;;;;;;;5106559;27;20051;-85
2022/12/25 02:09:31;;;;;;;0.90;0.85;;;;;;;;;;5122414;27;20086;-86
2022/12/25 02:11:57;;;;;;;1.30;0.88;;;;;;;;;;5123501;27;20023;-83
2022/12/25 02:14:25;;;;;;;0.50;0.50;;;;;;;;;;5123726;27;20507;-85
2022/12/25 02:17:00;;;;;;;1.85;0.95;;;;;;;;;;5122530;27;20038;-86
2022/12/25 02:20:01;;;;;;;1.05;0.85;;;;;;;;;;5108983;27;20097;-86
2022/12/25 02:23:04;;;;;;;2.78;1.00;;;;;;;;;;5124843;27;20027;-85
2022/12/25 02:25:57;;;;;;;1.33;0.95;;;;;;;;;;5126083;27;20031;-87
2022/12/25 02:28:41;;;;;;;0.75;0.47;;;;;;;;;;5125161;27;20035;-85
2022/12/25 02:31:13;;;;;;;0.57;0.50;;;;;;;;;;5125283;27;20745;-86
2022/12/25 02:34:02;;;;;;;1.75;1.10;;;;;;;;;;5125117;27;20471;-86
2022/12/25 02:36:40;;;;;;;0.73;0.73;;;;;;;;;;5123955;27;20080;-85
2022/12/25 02:42:04;;;;;;;0.40;0.40;;;;;;;;;;5115498;27;20107;-85
2022/12/25 03:07:19;;;;;;;0.30;0.30;;;;;;;;;;5121985;27;20034;-88
2022/12/25 03:13:13;;;;;;;1.10;0.90;;;;;;;;;;5124669;27;20065;-86
2022/12/25 03:18:26;;;;;;;1.38;0.63;;;;;;;;;;5126674;27;20038;-86
2022/12/25 03:32:50;;;;;;;0.77;0.47;;;;;;;;;;5112648;27;20092;-83
2022/12/25 03:36:02;;;;;;;0.65;0.50;;;;;;;;;;5083969;27;20038;-82
2022/12/25 04:36:43;;;;;;;0.73;0.73;;;;;;;;;;5124058;27;20163;-84
2022/12/25 04:39:09;;;;;;;0.73;0.68;;;;;;;;;;5103003;27;20106;-85
2022/12/25 04:41:35;;;;;;;0.47;0.47;;;;;;;;;;5123249;27;20058;-85
2022/12/25 04:44:01;;;;;;;1.05;0.82;;;;;;;;;;5103863;27;20485;-83
2022/12/25 04:46:26;;;;;;;1.08;0.60;;;;;;;;;;5102980;27;20086;-85
2022/12/25 04:48:52;;;;;;;0.80;0.75;;;;;;;;;;5121574;27;20092;-87
2022/12/25 04:51:20;;;;;;;0.45;0.38;;;;;;;;;;5105046;27;20049;-86
2022/12/25 04:53:46;;;;;;;0.73;0.55;;;;;;;;;;5100363;27;20043;-84
2022/12/25 04:56:13;;;;;;;0.82;0.52;;;;;;;;;;5124647;27;20023;-84
2022/12/25 04:58:40;;;;;;;0.30;0.30;;;;;;;;;;5118522;27;20076;-85
2022/12/25 05:01:05;;;;;;;1.90;0.43;;;;;;;;;;5105416;28;20051;-84
2022/12/25 05:03:32;;;;;;;3.45;0.70;;;;;;;;;;5122128;27;20603;-84
2022/12/25 05:05:58;;;;;;;0.82;0.70;;;;;;;;;;5123538;27;20107;-88
2022/12/25 05:08:23;;;;;;;0.65;0.47;;;;;;;;;;5102863;28;20015;-86
2022/12/25 05:10:49;;;;;;;0.28;0.28;;;;;;;;;;5114366;28;20076;-85
2022/12/25 05:13:15;;;;;;;0.40;0.40;;;;;;;;;;5122646;27;20034;-84
2022/12/25 05:15:41;;;;;;;1.25;0.60;;;;;;;;;;5123577;28;20031;-85
2022/12/25 05:18:06;;;;;;;0.40;0.40;;;;;;;;;;5122358;27;20035;-83
2022/12/25 05:20:32;;;;;;;0.75;0.50;;;;;;;;;;5120486;28;20083;-84
2022/12/25 05:22:58;;;;;;;0.88;0.82;;;;;;;;;;5093884;28;20043;-83
2022/12/25 05:25:23;;;;;;;0.25;0.25;;;;;;;;;;5121109;27;20083;-83
2022/12/25 05:27:49;;;;;;;0.40;0.40;;;;;;;;;;5098382;28;20035;-83
2022/12/25 05:30:14;;;;;;;0.73;0.60;;;;;;;;;;5120707;28;20034;-85
2022/12/25 05:32:40;;;;;;;0.32;0.32;;;;;;;;;;5120005;27;20466;-87
2022/12/25 05:35:07;;;;;;;0.20;0.20;;;;;;;;;;5116960;27;20108;-83
2022/12/25 05:37:36;;;;;;;0.20;0.20;;;;;;;;;;5094402;28;20072;-82
2022/12/25 05:40:02;;;;;;;0.25;0.25;;;;;;;;;;5120640;28;20051;-84
2022/12/25 05:42:28;;;;;;;0.20;0.20;;;;;;;;;;5118445;28;20035;-85
2022/12/25 05:44:53;;;;;;;0.20;0.20;;;;;;;;;;5117177;28;20035;-83
2022/12/25 05:47:18;;;;;;;0.63;0.50;;;;;;;;;;5118516;28;20399;-84
2022/12/25 05:49:44;;;;;;;1.15;0.82;;;;;;;;;;5118941;28;20027;-85
2022/12/25 05:52:09;;;;;;;0.35;0.35;;;;;;;;;;5119674;28;20090;-86
2022/12/25 05:54:35;;;;;;;0.30;0.30;;;;;;;;;;5117349;28;20072;-86
2022/12/25 05:57:01;;;;;;;0.70;0.68;;;;;;;;;;5122823;28;20395;-86
2022/12/25 05:59:28;;;;;;;0.10;0.10;;;;;;;;;;5098242;28;20451;-89
2022/12/25 06:01:54;;;;;;;2.03;0.30;;;;;;;;;;5121819;28;20047;-83
2022/12/25 06:04:19;;;;;;;0.88;0.50;;;;;;;;;;5116707;28;20054;-86
2022/12/25 06:06:45;;;;;;;1.15;0.30;;;;;;;;;;5119610;28;20023;-87
2022/12/25 06:09:12;;;;;;;0.25;0.25;;;;;;;;;;5102116;28;20019;-88
2022/12/25 06:11:38;;;;;;;0.32;0.32;;;;;;;;;;5094474;28;20108;-86
2022/12/25 06:14:03;;;;;;;2.08;0.40;;;;;;;;;;5100749;27;20118;-88
2022/12/25 06:16:29;;;;;;;1.92;0.75;;;;;;;;;;5121953;27;20185;-84
2022/12/25 06:18:54;;;;;;;0.63;0.30;;;;;;;;;;5109106;28;20075;-84
2022/12/25 06:21:20;;;;;;;0.30;0.30;;;;;;;;;;5122743;27;20035;-85
2022/12/25 06:23:45;;;;;;;0.47;0.47;;;;;;;;;;5098409;28;20050;-84
2022/12/25 06:26:17;;;;;;;0.30;0.30;;;;;;;;;;5104164;28;20057;-86
2022/12/25 06:28:43;;;;;;;2.10;0.88;;;;;;;;;;5103849;27;20531;-88
2022/12/25 06:31:12;;;;;;;0.60;0.60;;;;;;;;;;5125577;27;20023;-87
2022/12/25 06:33:37;;;;;;;0.45;0.40;;;;;;;;;;5106081;27;20019;-87
2022/12/25 06:36:07;;;;;;;3.33;0.75;;;;;;;;;;5123268;27;20028;-87
2022/12/25 06:38:34;;;;;;;0.50;0.35;;;;;;;;;;5129441;27;20031;-87
2022/12/25 06:41:04;;;;;;;0.85;0.80;;;;;;;;;;5107335;27;20116;-87
2022/12/25 06:43:30;;;;;;;0.68;0.63;;;;;;;;;;5124236;27;20016;-87
2022/12/25 06:45:55;;;;;;;0.57;0.57;;;;;;;;;;5126169;27;20378;-84
2022/12/25 06:48:21;;;;;;;0.57;0.40;;;;;;;;;;5100993;28;20046;-85
2022/12/25 06:50:46;;;;;;;0.80;0.60;;;;;;;;;;5121872;27;20434;-84
2022/12/25 06:53:11;;;;;;;1.25;0.65;;;;;;;;;;5105939;27;20047;-85
2022/12/25 06:55:37;;;;;;;0.75;0.57;;;;;;;;;;5123412;27;20028;-83
2022/12/25 06:58:02;;;;;;;0.55;0.55;;;;;;;;;;5129195;27;20023;-86
2022/12/25 07:00:28;;;;;;;0.77;0.60;;;;;;;;;;5101665;28;20088;-86
2022/12/25 07:02:53;;;;;;;1.20;1.05;;;;;;;;;;5098236;27;20050;-85
2022/12/25 07:05:18;;;;;;;1.92;1.00;;;;;;;;;;5123193;27;20015;-85
2022/12/25 07:07:44;;;;;;;0.63;0.50;;;;;;;;;;5103036;27;20469;-87
2022/12/25 07:10:10;;;;;;;0.57;0.52;;;;;;;;;;5119572;27;20482;-86
2022/12/25 07:12:35;;;;;;;0.65;0.65;;;;;;;;;;5105850;28;20023;-87
2022/12/25 07:15:01;;;;;;;0.45;0.30;;;;;;;;;;5105268;27;20435;-86
2022/12/25 07:17:26;;;;;;;0.80;0.40;;;;;;;;;;5126318;27;20031;-84
2022/12/25 07:19:52;;;;;;;1.20;0.80;;;;;;;;;;5121158;27;20027;-85
2022/12/25 07:22:17;;;;;;;0.52;0.52;;;;;;;;;;5125003;27;20027;-87
2022/12/25 07:24:43;;;;;;;2.35;0.80;;;;;;;;;;5099083;28;20020;-87
2022/12/25 07:27:09;;;;;;;3.10;0.60;;;;;;;;;;5108402;27;20111;-86
2022/12/25 07:29:34;;;;;;;1.75;0.50;;;;;;;;;;5103244;28;20412;-87
2022/12/25 07:31:59;;;;;;;3.30;1.02;;;;;;;;;;5122301;27;20023;-84
2022/12/25 07:34:25;;;;;;;1.02;0.63;;;;;;;;;;5102716;28;20829;-88
2022/12/25 07:36:51;;;;;;;0.52;0.38;;;;;;;;;;5128820;27;20117;-85
2022/12/25 07:39:16;;;;;;;0.90;0.60;;;;;;;;;;5115855;27;20027;-85
2022/12/25 07:41:42;;;;;;;0.60;0.60;;;;;;;;;;5103760;27;20079;-85
2022/12/25 07:44:08;;;;;;;1.25;0.32;;;;;;;;;;5121135;27;20024;-86
2022/12/25 07:46:33;;;;;;;0.57;0.57;;;;;;;;;;5122455;27;20028;-84
2022/12/25 07:48:59;;;;;;;0.85;0.40;;;;;;;;;;5127793;27;20079;-87
2022/12/25 07:51:24;;;;;;;0.20;0.20;;;;;;;;;;5099106;27;20084;-86
2022/12/25 07:53:50;;;;;;;0.50;0.50;;;;;;;;;;5127401;27;20086;-89
2022/12/25 07:56:17;;;;;;;1.40;0.60;;;;;;;;;;5126098;27;20107;-85
2022/12/25 07:58:44;;;;;;;0.95;0.57;;;;;;;;;;5099682;28;20031;-85
2022/12/25 08:01:13;;;;;;;0.70;0.57;;;;;;;;;;5098021;27;20038;-88
2022/12/25 08:03:38;;;;;;;2.17;0.70;;;;;;;;;;5101864;27;20106;-89
2022/12/25 08:06:06;;;;;;;0.38;0.38;;;;;;;;;;5106605;27;20065;-88
2022/12/25 08:08:32;;;;;;;0.52;0.50;;;;;;;;;;5101783;27;20114;-88
2022/12/25 08:10:58;;;;;;;0.32;0.30;;;;;;;;;;5101006;27;20104;-86
2022/12/25 08:13:24;;;;;;;8.20;0.50;;;;;;;;;;5104647;28;20028;-89
2022/12/25 08:15:49;;;;;;;0.88;0.63;;;;;;;;;;5102367;28;20421;-85
2022/12/25 08:18:15;;;;;;;0.32;0.32;;;;;;;;;;5103362;28;20077;-86
2022/12/25 08:20:40;;;;;;;4.35;2.10;;;;;;;;;;5127913;27;20034;-88
2022/12/25 08:23:06;;;;;;;1.05;0.47;;;;;;;;;;5115042;27;20024;-88
2022/12/25 08:25:31;;;;;;;0.88;0.85;;;;;;;;;;5119775;27;20026;-87
2022/12/25 08:28:00;;;;;;;0.30;0.30;;;;;;;;;;5123709;27;20030;-86
2022/12/25 08:30:25;;;;;;;0.82;0.40;;;;;;;;;;5121646;27;20035;-87
2022/12/25 08:32:51;;;;;;;0.70;0.50;;;;;;;;;;5117949;27;20020;-87
2022/12/25 08:35:16;;;;;;;0.85;0.65;;;;;;;;;;5102750;28;20050;-86
2022/12/25 08:37:42;;;;;;;3.17;1.42;;;;;;;;;;5096886;28;20416;-89
2022/12/25 08:40:08;;;;;;;1.95;1.42;;;;;;;;;;5122382;27;20136;-85
2022/12/25 08:42:33;;;;;;;5.63;4.15;;;;;;;;;;5122361;27;20028;-85
2022/12/25 08:44:58;;;;;;;9.43;4.50;;;;;;;;;;5121785;27;20467;-88
2022/12/25 08:47:24;;;;;;;15.63;10.25;;;;;;;;;;5119389;27;20030;-87
2022/12/25 08:49:49;;;;;;;10.68;6.47;;;;;;;;;;5121127;27;20030;-85
2022/12/25 08:52:14;;;;;;;4.13;2.78;;;;;;;;;;5103433;27;20127;-86
2022/12/25 08:54:53;;;;;;;5.93;2.65;;;;;;;;;;5072287;28;20701;-86
2022/12/25 08:57:19;;;;;;;0.95;0.80;;;;;;;;;;5079410;28;20036;-87
2022/12/25 08:59:44;;;;;;;11.30;6.55;;;;;;;;;;5073947;28;20673;-86
2022/12/25 09:02:11;;;;;;;10.07;4.88;;;;;;;;;;5072455;28;20086;-85
2022/12/25 09:04:36;;;;;;;6.18;3.75;;;;;;;;;;5070053;28;20020;-86
2022/12/25 09:07:02;;;;;;;4.32;3.05;;;;;;;;;;5070521;28;20040;-88
2022/12/25 09:09:27;;;;;;;17.80;9.40;;;;;;;;;;5077462;28;20521;-89
2022/12/25 09:11:53;;;;;;;0.93;0.85;;;;;;;;;;5072724;28;20055;-85
2022/12/25 09:14:18;;;;;;;2.53;1.58;;;;;;;;;;5071503;28;20040;-85
2022/12/25 09:16:44;;;;;;;3.88;2.20;;;;;;;;;;5078780;28;20051;-87
2022/12/25 09:19:09;;;;;;;4.22;2.42;;;;;;;;;;5079609;28;20036;-88
2022/12/25 09:21:35;;;;;;;4.90;2.75;;;;;;;;;;5072788;28;20066;-87
2022/12/25 09:24:02;;;;;;;11.98;5.53;;;;;;;;;;5070721;28;20553;-88
2022/12/25 09:26:27;;;;;;;2.88;1.20;;;;;;;;;;5067004;28;20028;-86
2022/12/25 09:28:53;;;;;;;2.38;1.80;;;;;;;;;;5083338;28;20035;-87
2022/12/25 09:31:20;;;;;;;5.97;2.92;;;;;;;;;;5073073;28;20043;-87
2022/12/25 09:33:47;;;;;;;3.88;1.60;;;;;;;;;;5076960;28;20094;-89
2022/12/25 09:36:12;;;;;;;0.75;0.68;;;;;;;;;;5072563;28;20053;-87
2022/12/25 09:38:38;;;;;;;3.60;2.30;;;;;;;;;;5076211;28;20050;-84
2022/12/25 09:41:51;;;;;;;0.95;0.68;;;;;;;;;;5072773;28;20456;-85
2022/12/25 09:44:30;;;;;;;0.90;0.45;;;;;;;;;;5068125;28;20530;-83
2022/12/25 09:47:03;;;;;;;0.77;0.68;;;;;;;;;;5069028;28;20033;-83
2022/12/25 09:49:42;;;;;;;5.85;2.60;;;;;;;;;;5073765;28;20024;-81
2022/12/25 09:52:12;;;;;;;0.55;0.52;;;;;;;;;;5069239;28;20024;-81
2022/12/25 09:54:51;;;;;;;6.85;4.05;;;;;;;;;;5074130;28;20511;-86
2022/12/25 09:57:17;;;;;;;3.10;1.48;;;;;;;;;;5080519;28;20025;-90
2022/12/25 09:59:43;;;;;;;11.30;6.03;;;;;;;;;;5073643;28;20028;-87
2022/12/25 10:02:33;;;;;;;2.63;1.35;;;;;;;;;;5072964;28;20460;-88
2022/12/25 10:05:36;;;;;;;6.55;4.22;;;;;;;;;;5061520;28;20087;-89
2022/12/25 10:08:39;;;;;;;2.72;1.40;;;;;;;;;;5060678;28;20048;-84
2022/12/25 10:11:23;;;;;;;0.88;0.80;;;;;;;;;;5046378;28;20127;-88
2022/12/25 10:14:24;;;;;;;2.08;1.25;;;;;;;;;;5059206;28;20033;-85
2022/12/25 10:17:17;;;;;;;0.73;0.50;;;;;;;;;;5059426;28;20031;-87
2022/12/25 10:19:55;;;;;;;7.22;2.33;;;;;;;;;;5082790;28;20235;-87
2022/12/25 10:22:33;;;;;;;0.35;0.35;;;;;;;;;;5064669;28;20024;-88
2022/12/25 10:25:00;;;;;;;1.20;0.90;;;;;;;;;;5062490;28;20028;-86
2022/12/25 10:27:33;;;;;;;1.30;1.08;;;;;;;;;;5061249;28;20416;-90
2022/12/25 10:30:00;;;;;;;1.20;0.85;;;;;;;;;;5062325;28;20081;-86
2022/12/25 10:32:26;;;;;;;1.13;0.77;;;;;;;;;;5059922;28;20544;-83
2022/12/25 10:34:52;;;;;;;2.47;1.67;;;;;;;;;;5060218;28;20174;-85
2022/12/25 10:37:17;;;;;;;2.25;1.63;;;;;;;;;;5063680;28;20021;-86
2022/12/25 10:39:43;;;;;;;1.75;1.15;;;;;;;;;;5069019;28;20040;-91
2022/12/25 10:42:30;;;;;;;1.30;0.73;;;;;;;;;;5058087;28;20029;-88
2022/12/25 10:45:02;;;;;;;2.08;1.10;;;;;;;;;;5064047;28;20060;-90
2022/12/25 10:47:36;;;;;;;1.75;1.05;;;;;;;;;;5061693;28;20048;-88
2022/12/25 10:50:09;;;;;;;4.47;3.15;;;;;;;;;;5067409;28;20054;-83
2022/12/25 10:53:08;;;;;;;3.15;2.75;;;;;;;;;;5064697;28;20107;-88
2022/12/25 10:55:33;;;;;;;1.10;0.55;;;;;;;;;;5058764;28;20051;-87
2022/12/25 10:58:00;;;;;;;0.43;0.38;;;;;;;;;;5062881;28;20456;-89
2022/12/25 11:00:31;;;;;;;1.58;1.00;;;;;;;;;;5059342;28;20101;-88
2022/12/25 11:02:56;;;;;;;1.00;0.52;;;;;;;;;;5061380;28;20538;-87
2022/12/25 11:05:33;;;;;;;0.55;0.55;;;;;;;;;;5063538;28;20049;-88
2022/12/25 11:08:02;;;;;;;0.40;0.40;;;;;;;;;;5062679;28;20392;-85
2022/12/25 11:10:35;;;;;;;2.20;0.60;;;;;;;;;;5057770;28;20036;-87
2022/12/25 11:13:04;;;;;;;0.52;0.52;;;;;;;;;;5063830;28;20075;-91
2022/12/25 11:15:38;;;;;;;0.43;0.43;;;;;;;;;;5068281;28;20388;-90
2022/12/25 11:18:24;;;;;;;1.10;1.00;;;;;;;;;;5063202;28;20028;-93
2022/12/25 11:20:59;;;;;;;2.38;0.88;;;;;;;;;;5064746;28;20487;-90
2022/12/25 11:23:27;;;;;;;1.17;1.05;;;;;;;;;;5058287;28;20113;-87
2022/12/25 11:25:59;;;;;;;0.45;0.35;;;;;;;;;;5062718;28;20078;-85
2022/12/25 11:28:29;;;;;;;1.35;0.90;;;;;;;;;;5056538;28;20028;-88
2022/12/25 11:31:01;;;;;;;2.58;0.47;;;;;;;;;;5057980;28;20025;-90
2022/12/25 11:33:41;;;;;;;0.45;0.30;;;;;;;;;;5063147;28;20115;-90
2022/12/25 11:36:35;;;;;;;0.40;0.40;;;;;;;;;;5060727;28;20477;-91
2022/12/25 11:39:32;;;;;;;2.20;0.88;;;;;;;;;;5037841;28;20075;-89
2022/12/25 11:42:38;;;;;;;1.10;0.70;;;;;;;;;;5060111;28;20036;-87
2022/12/25 11:45:16;;;;;;;0.40;0.38;;;;;;;;;;5054501;28;20079;-92
2022/12/25 11:48:10;;;;;;;0.30;0.30;;;;;;;;;;5063530;28;20028;-90
2022/12/25 11:50:55;;;;;;;0.30;0.30;;;;;;;;;;5052570;28;20115;-89
2022/12/25 11:53:27;;;;;;;0.60;0.60;;;;;;;;;;5059901;28;20037;-88
2022/12/25 11:55:58;;;;;;;0.47;0.47;;;;;;;;;;5065058;28;20029;-89
2022/12/25 11:58:42;;;;;;;1.23;0.85;;;;;;;;;;5062751;28;20039;-91
2022/12/25 12:01:50;;;;;;;0.68;0.65;;;;;;;;;;5060349;28;20028;-90
2022/12/25 12:04:40;;;;;;;1.23;0.73;;;;;;;;;;5053480;28;20033;-90
2022/12/25 12:07:25;;;;;;;;;;;;;;;;;;5059462;28;20048;-91
2022/12/25 12:10:22;;;;;;;0.30;0.30;;;;;;;;;;5061896;28;19913;-90
2022/12/25 12:12:50;;;;;;;0.55;0.52;;;;;;;;;;5060429;28;20045;-91
2022/12/25 12:15:34;;;;;;;0.82;0.60;;;;;;;;;;5059801;28;20021;-91
2022/12/25 12:18:27;;;;;;;1.35;0.63;;;;;;;;;;5057711;28;20033;-87
2022/12/25 12:21:22;;;;;;;0.38;0.38;;;;;;;;;;5059123;28;20025;-88
2022/12/25 12:23:53;;;;;;;2.05;0.55;;;;;;;;;;5055582;28;20036;-89
2022/12/25 12:26:24;;;;;;;2.08;1.23;;;;;;;;;;5058574;28;20480;-90
2022/12/25 12:28:53;;;;;;;0.30;0.30;;;;;;;;;;5058732;28;20036;-87
2022/12/25 12:31:18;;;;;;;1.08;0.60;;;;;;;;;;5061985;28;20399;-86
2022/12/25 12:33:50;;;;;;;0.55;0.50;;;;;;;;;;5068123;28;20030;-90
2022/12/25 12:36:16;;;;;;;0.38;0.35;;;;;;;;;;5063473;28;20032;-91
2022/12/25 12:38:43;;;;;;;0.68;0.65;;;;;;;;;;5067935;28;20039;-90
2022/12/25 12:41:11;;;;;;;0.68;0.43;;;;;;;;;;5059301;28;20052;-88
2022/12/25 12:43:51;;;;;;;0.35;0.35;;;;;;;;;;5070648;28;20028;-89
2022/12/25 12:46:23;;;;;;;0.50;0.50;;;;;;;;;;5063582;28;20086;-84
2022/12/25 12:48:51;;;;;;;0.32;0.32;;;;;;;;;;5064072;28;20029;-86
2022/12/25 12:51:35;;;;;;;0.17;0.17;;;;;;;;;;5066425;28;20387;-87
2022/12/25 12:54:19;;;;;;;0.95;0.55;;;;;;;;;;5056285;28;20041;-88
2022/12/25 12:56:55;;;;;;;0.80;0.57;;;;;;;;;;5065551;28;20061;-89
2022/12/25 12:59:23;;;;;;;1.38;1.10;;;;;;;;;;5054837;28;20488;-92
2022/12/25 13:02:13;;;;;;;0.40;0.40;;;;;;;;;;5054652;28;20028;-91
2022/12/25 13:04:47;;;;;;;1.63;0.40;;;;;;;;;;5066679;28;20025;-92
2022/12/25 13:07:54;;;;;;;0.25;0.25;;;;;;;;;;5063284;28;20032;-89
2022/12/25 13:10:30;;;;;;;0.40;0.40;;;;;;;;;;5036440;28;20061;-90
2022/12/25 13:13:03;;;;;;;3.20;0.75;;;;;;;;;;5059151;28;20118;-89
2022/12/25 13:15:33;;;;;;;1.75;0.93;;;;;;;;;;5041543;28;20028;-91
2022/12/25 13:18:05;;;;;;;0.40;0.38;;;;;;;;;;5060396;28;20028;-92
2022/12/25 13:20:54;;;;;;;0.57;0.32;;;;;;;;;;5065486;28;20028;-89
2022/12/25 13:23:28;;;;;;;1.55;0.73;;;;;;;;;;5057840;28;20012;-91
2022/12/25 13:25:55;;;;;;;0.80;0.55;;;;;;;;;;5057150;28;20029;-90
2022/12/25 13:28:29;;;;;;;0.93;0.70;;;;;;;;;;5062299;28;20024;-90
2022/12/25 13:31:22;;;;;;;5.65;2.38;;;;;;;;;;5056750;28;20051;-92
2022/12/25 13:33:51;;;;;;;4.32;2.67;;;;;;;;;;5062822;28;20041;-90
2022/12/25 13:36:17;;;;;;;3.20;1.70;;;;;;;;;;5052240;28;20496;-91
2022/12/25 13:38:53;;;;;;;3.05;1.90;;;;;;;;;;5065742;28;20100;-90
2022/12/25 13:44:18;;;;;;;1.42;1.15;;;;;;;;;;5056994;28;20442;-86
2022/12/25 13:46:44;;;;;;;2.97;1.90;;;;;;;;;;5065387;28;20032;-86
2022/12/25 13:49:15;;;;;;;5.60;2.30;;;;;;;;;;5062995;28;20036;-86
2022/12/25 13:51:40;;;;;;;5.25;2.50;;;;;;;;;;5066906;28;20055;-86
2022/12/25 13:57:34;;;;;;;6.90;3.05;;;;;;;;;;5064239;28;20067;-88
2022/12/25 14:00:00;;;;;;;6.47;2.97;;;;;;;;;;5065587;28;20037;-88
2022/12/25 14:02:30;;;;;;;10.65;5.45;;;;;;;;;;5065393;28;20116;-90
2022/12/25 14:04:55;;;;;;;4.88;2.30;;;;;;;;;;5064734;28;20103;-90
2022/12/25 14:07:23;;;;;;;2.88;1.58;;;;;;;;;;5065064;28;20056;-89
2022/12/25 14:09:55;;;;;;;1.80;1.65;;;;;;;;;;5064293;28;20021;-90
2022/12/25 14:12:21;;;;;;;2.08;1.52;;;;;;;;;;5060919;28;20040;-89
2022/12/25 14:14:52;;;;;;;3.95;2.28;;;;;;;;;;5066241;28;20041;-90
2022/12/25 14:17:18;;;;;;;4.70;1.90;;;;;;;;;;5063021;28;20059;-88
2022/12/25 14:19:43;;;;;;;2.80;1.70;;;;;;;;;;5059646;28;20075;-91
2022/12/25 14:22:19;;;;;;;4.80;1.92;;;;;;;;;;5061489;28;20028;-88
2022/12/25 14:24:45;;;;;;;7.78;2.30;;;;;;;;;;5062818;28;20025;-90
2022/12/25 14:27:18;;;;;;;3.67;1.80;;;;;;;;;;5063052;28;20494;-92
2022/12/25 14:29:46;;;;;;;8.10;3.42;;;;;;;;;;5061182;28;20108;-88
2022/12/25 14:32:17;;;;;;;2.78;2.00;;;;;;;;;;5063412;28;20047;-91
2022/12/25 14:34:46;;;;;;;0.88;0.68;;;;;;;;;;5058939;28;20059;-91
2022/12/25 14:37:20;;;;;;;1.45;1.25;;;;;;;;;;5064074;28;20111;-88
2022/12/25 14:40:14;;;;;;;2.05;1.45;;;;;;;;;;5058361;28;20031;-90
2022/12/25 14:42:39;;;;;;;2.80;1.92;;;;;;;;;;5055329;28;20140;-88
2022/12/25 14:45:32;;;;;;;1.85;1.08;;;;;;;;;;5063142;28;20032;-90
2022/12/25 14:48:14;;;;;;;4.97;1.42;;;;;;;;;;5062156;28;20036;-88
2022/12/25 14:51:02;;;;;;;3.13;1.48;;;;;;;;;;5063847;28;20044;-92
2022/12/25 14:53:53;;;;;;;1.33;0.90;;;;;;;;;;5065429;28;20044;-90
2022/12/25 14:56:20;;;;;;;1.10;0.80;;;;;;;;;;5057182;28;20029;-88
2022/12/25 14:58:50;;;;;;;0.63;0.63;;;;;;;;;;5058873;28;20025;-90
2022/12/25 15:01:37;;;;;;;0.63;0.60;;;;;;;;;;5061431;28;20032;-91
2022/12/25 15:04:09;;;;;;;1.45;1.20;;;;;;;;;;5065865;28;20032;-88
2022/12/25 15:06:37;;;;;;;5.90;2.15;;;;;;;;;;5059491;28;20033;-90
2022/12/25 15:09:11;;;;;;;2.40;1.45;;;;;;;;;;5060889;28;20069;-89
2022/12/25 15:11:37;;;;;;;1.58;0.98;;;;;;;;;;5062801;28;20389;-89
2022/12/25 15:14:02;;;;;;;1.75;1.20;;;;;;;;;;5058512;28;20029;-87
2022/12/25 15:16:36;;;;;;;3.13;1.80;;;;;;;;;;5060159;28;20021;-87
2022/12/25 15:19:02;;;;;;;1.10;0.98;;;;;;;;;;5059364;28;20028;-87
2022/12/25 15:21:29;;;;;;;1.63;1.45;;;;;;;;;;5067304;28;20039;-88
2022/12/25 15:23:57;;;;;;;3.47;2.20;;;;;;;;;;5062779;28;20526;-87
2022/12/25 15:26:23;;;;;;;3.58;2.20;;;;;;;;;;5056406;28;20032;-87
2022/12/25 15:28:49;;;;;;;2.88;1.92;;;;;;;;;;5060774;28;20083;-88
2022/12/25 15:31:26;;;;;;;3.40;2.25;;;;;;;;;;5062305;28;20052;-89
2022/12/25 15:33:53;;;;;;;3.60;1.65;;;;;;;;;;5056293;28;20079;-91
2022/12/25 15:36:19;;;;;;;6.25;2.83;;;;;;;;;;5060356;28;20044;-91
2022/12/25 15:38:44;;;;;;;4.18;2.92;;;;;;;;;;5063289;28;20051;-89
2022/12/25 15:42:09;;;;;;;7.97;2.95;;;;;;;;;;5057282;28;20025;-90
2022/12/25 15:44:03;;;;;;;4.22;2.58;;;;;;;;;;5058019;28;20025;-88
2022/12/25 15:46:29;;;;;;;3.88;1.65;;;;;;;;;;5063058;28;20112;-90
2022/12/25 15:48:55;;;;;;;3.05;1.98;;;;;;;;;;5061030;28;20056;-88
2022/12/25 15:51:21;;;;;;;1.85;1.35;;;;;;;;;;5070726;28;20032;-91
2022/12/25 15:53:46;;;;;;;1.20;1.10;;;;;;;;;;5057253;28;20045;-88
2022/12/25 15:56:11;;;;;;;1.77;0.70;;;;;;;;;;5064310;28;20036;-90
2022/12/25 15:58:37;;;;;;;0.75;0.40;;;;;;;;;;5062659;28;20036;-89
2022/12/25 16:01:03;;;;;;;0.30;0.30;;;;;;;;;;5065760;28;20031;-90
2022/12/25 16:03:28;;;;;;;0.95;0.90;;;;;;;;;;5060264;28;20055;-89
2022/12/25 16:05:53;;;;;;;1.15;0.63;;;;;;;;;;5060354;28;20032;-89
2022/12/25 16:08:19;;;;;;;3.88;1.70;;;;;;;;;;5054866;28;20021;-91
2022/12/25 16:10:45;;;;;;;4.55;2.90;;;;;;;;;;5061468;28;20031;-88
2022/12/25 16:13:10;;;;;;;2.92;1.98;;;;;;;;;;5053243;28;20070;-90
2022/12/25 16:15:36;;;;;;;3.25;1.65;;;;;;;;;;5063099;28;20116;-88
2022/12/25 16:18:02;;;;;;;2.58;1.23;;;;;;;;;;5067231;28;20032;-91
2022/12/25 16:20:27;;;;;;;2.72;1.50;;;;;;;;;;5053585;28;20041;-90
2022/12/25 16:22:53;;;;;;;1.13;1.02;;;;;;;;;;5066772;28;20107;-90
2022/12/25 16:25:19;;;;;;;1.20;0.77;;;;;;;;;;5062598;28;20530;-88
2022/12/25 16:27:44;;;;;;;2.90;1.73;;;;;;;;;;5071590;28;20044;-90
2022/12/25 16:30:13;;;;;;;2.03;1.25;;;;;;;;;;5062025;28;20078;-90
2022/12/25 16:32:38;;;;;;;1.70;1.00;;;;;;;;;;5057093;28;20028;-90
2022/12/25 16:35:04;;;;;;;1.90;1.00;;;;;;;;;;5062209;28;20021;-90
2022/12/25 16:37:30;;;;;;;1.70;1.20;;;;;;;;;;5059385;28;20029;-91
2022/12/25 16:39:55;;;;;;;0.95;0.60;;;;;;;;;;5057745;28;20037;-94
2022/12/25 16:42:20;;;;;;;1.00;0.90;;;;;;;;;;5057912;28;20032;-90
2022/12/25 16:44:46;;;;;;;0.43;0.43;;;;;;;;;;5058946;28;20020;-90
2022/12/25 16:47:11;;;;;;;0.30;0.30;;;;;;;;;;5068054;28;20025;-91
2022/12/25 16:49:37;;;;;;;1.83;0.82;;;;;;;;;;5067602;28;20036;-90
2022/12/25 16:52:02;;;;;;;0.70;0.50;;;;;;;;;;5059654;28;20163;-91
2022/12/25 16:54:28;;;;;;;1.25;0.70;;;;;;;;;;5057139;28;20044;-93